メインページ
METAR-TAF:

METAR-TAF

空港 :

マッカラン国際空港

ラスベガス, ネバダ州, アメリカ合衆国

緯度: 36-04-44N, 経度: 115-09-19W, 海抜: 663m

現時点の気象観測

当レポートは32分前の18:56(UTC)に作成
の風 12kt、最大18ktの突風を伴う
気温 34°C
湿度 4%
気圧 1010 hPa
視程: 16.1km
晴天

METAR: KLAS 181856Z 17012G18KT 10SM CLR 34/M13 A2983 RMK AO2 SLP073 T03441128

時間: 12:28 (19:28 UTC)

予報

当レポートは1時間53分前の17:35(UTC)に作成
予報は18日の 18時(UTC)から 19日の 24時(UTC)まで有効
の風 10kt、最大17ktの突風を伴う
視程: 10km
晴天
18日の 2000時(UTC)から
南/南西の風 14kt、最大24ktの突風を伴う
視程: 10km
晴天
19日の 0200時(UTC)から
南/南西の風 8kt
視程: 10km
晴天
19日の 1500時(UTC)から
変向風 6kt
視程: 10km
晴天
19日の 2200時(UTC)から
南/南西の風 10kt
視程: 10km
晴天

TAF: KLAS 181735Z 1818/1924 17010G17KT P6SM SKC FM182000 20014G24KT P6SM SKC FM190200 21008KT P6SM SKC FM191500 VRB06KT P6SM SKC FM192200 20010KT P6SM SKC

4,000以上の空港の気象観測と天気予報(METAR報とTAF報)

利用可能な観測所は地図上に黄色い丸と赤い丸で示す。

丸の上にカーソルを重ねると観測所名を参照できる。

次にクリックすると気象観測と天気予報を参照できる。

マップの切り替え:黒色「×」印の緑ボタンをクリックして拡大、「-」印の緑ボタンをクリックして縮小、緑色の三角印をクリックして隣りの地図に切り替え


METAR-TAF: